createdAt,value
2023-01-17T05:17:59.110Z,97316.16
2023-01-17T05:20:27.038Z,97324.09
2023-01-17T05:22:57.473Z,97320.84
2023-01-17T05:25:27.329Z,97329.56
2023-01-17T05:27:54.380Z,97332.47
2023-01-17T05:30:22.446Z,97337.03
2023-01-17T05:32:50.513Z,97340.06
2023-01-17T05:35:19.613Z,97340.34
2023-01-17T05:37:49.109Z,97345.44
2023-01-17T05:40:20.737Z,97346.69
2023-01-17T05:42:51.928Z,97352.03
2023-01-17T05:45:20.049Z,97351.59
2023-01-17T05:47:51.391Z,97356.63
2023-01-17T05:50:20.729Z,97351.97
2023-01-17T05:52:52.783Z,97357.06
2023-01-17T05:55:20.230Z,97352.44
2023-01-17T05:57:46.784Z,97355.25
2023-01-17T06:00:14.585Z,97351.25
2023-01-17T06:02:45.468Z,97354.34
2023-01-17T06:05:16.911Z,97353.44
2023-01-17T06:07:47.749Z,97348.38
2023-01-17T06:10:40.064Z,97351.97
2023-01-17T06:13:21.010Z,97350.00
2023-01-17T06:15:48.088Z,97350.28
2023-01-17T06:18:16.655Z,97355.63
2023-01-17T06:21:08.146Z,97352.53
2023-01-17T06:23:43.936Z,97350.47
2023-01-17T06:26:10.713Z,97361.69
2023-01-17T06:28:37.545Z,97366.41
2023-01-17T06:31:09.265Z,97369.81
2023-01-17T06:33:35.901Z,97363.69
2023-01-17T06:36:02.448Z,97367.09
2023-01-17T06:38:29.973Z,97366.66
2023-01-17T06:41:00.149Z,97366.94
2023-01-17T06:43:28.910Z,97370.75
2023-01-17T06:45:55.635Z,97373.78
2023-01-17T06:48:24.268Z,97376.09
2023-01-17T06:50:52.844Z,97387.91
2023-01-17T06:53:19.364Z,97384.44
2023-01-17T06:55:45.935Z,97386.63
2023-01-17T06:58:12.435Z,97395.25
2023-01-17T07:00:40.931Z,97391.34
2023-01-17T07:03:17.273Z,97395.50
2023-01-17T07:09:57.289Z,97386.91
2023-01-17T07:12:23.849Z,97393.06
2023-01-17T07:14:50.459Z,97394.25
2023-01-17T07:17:17.243Z,97394.84
2023-01-17T07:19:44.884Z,97384.94
2023-01-17T07:22:12.468Z,97382.88
2023-01-17T07:24:39.105Z,97380.78
2023-01-17T07:27:08.779Z,97382.88
2023-01-17T07:29:35.279Z,97381.41
2023-01-17T07:32:03.276Z,97378.84
2023-01-17T07:34:31.996Z,97383.94
2023-01-17T07:36:58.572Z,97390.34
2023-01-17T07:39:25.072Z,97384.88
2023-01-17T07:41:51.615Z,97384.19
2023-01-17T07:44:19.252Z,97388.97
2023-01-17T07:49:27.235Z,97376.84
2023-01-17T07:51:55.177Z,97378.66
2023-01-17T07:54:27.566Z,97372.09
2023-01-17T07:56:56.059Z,97363.34
2023-01-17T07:59:22.595Z,97359.97
2023-01-17T08:01:49.150Z,97360.13
2023-01-17T08:04:15.727Z,97354.03
2023-01-17T08:06:47.450Z,97357.50
2023-01-17T08:09:14.301Z,97358.25
2023-01-17T08:11:42.859Z,97361.72
2023-01-17T08:14:09.441Z,97358.06
2023-01-17T08:16:37.635Z,97364.28
2023-01-17T08:19:04.346Z,97363.56
2023-01-17T08:21:31.003Z,97360.50
2023-01-17T08:24:22.288Z,97348.53
2023-01-17T08:26:48.837Z,97342.09
2023-01-17T08:29:18.556Z,97330.28
2023-01-17T08:31:46.496Z,97330.06
2023-01-17T08:34:14.181Z,97331.63
2023-01-17T08:36:42.789Z,97327.19
2023-01-17T08:39:09.834Z,97327.03
2023-01-17T08:41:36.539Z,97310.44
2023-01-17T08:44:03.168Z,97312.66
2023-01-17T08:46:32.072Z,97302.69
2023-01-17T08:48:59.985Z,97309.75
2023-01-17T08:51:27.858Z,97297.13
2023-01-17T08:53:56.035Z,97301.44
2023-01-17T08:56:26.902Z,97309.00
2023-01-17T08:58:54.441Z,97319.03
2023-01-17T09:01:22.068Z,97326.97
2023-01-17T09:03:51.438Z,97322.72
2023-01-17T09:06:18.078Z,97317.16
2023-01-17T09:08:46.915Z,97319.22
2023-01-17T09:11:16.762Z,97318.38
2023-01-17T09:13:43.435Z,97318.91
2023-01-17T09:16:12.069Z,97321.81
2023-01-17T09:18:40.559Z,97318.09
2023-01-17T09:21:15.744Z,97316.81
2023-01-17T09:23:43.595Z,97322.66
2023-01-17T09:26:20.542Z,97318.41
2023-01-17T09:28:49.418Z,97320.81
2023-01-17T09:31:17.617Z,97326.31
2023-01-17T09:33:52.017Z,97327.84
2023-01-17T09:36:18.714Z,97326.66
2023-01-17T09:39:09.821Z,97328.91
2023-01-17T09:41:54.610Z,97325.13
2023-01-17T09:44:40.928Z,97330.25
2023-01-17T09:47:16.990Z,97329.91
2023-01-17T09:49:45.820Z,97338.84
2023-01-17T09:52:16.692Z,97339.09
2023-01-17T09:54:45.272Z,97345.13
2023-01-17T09:57:38.529Z,97341.44
2023-01-17T10:00:35.762Z,97347.53
2023-01-17T10:03:05.360Z,97343.22
2023-01-17T10:05:43.667Z,97345.19
2023-01-17T10:08:48.721Z,97337.03
2023-01-17T10:11:24.211Z,97340.44
2023-01-17T10:14:15.657Z,97336.03
2023-01-17T10:16:57.621Z,97343.75
2023-01-17T10:19:44.441Z,97344.56
2023-01-17T10:22:46.479Z,97342.47
2023-01-17T10:25:43.375Z,97331.00
2023-01-17T10:28:16.368Z,97331.09
2023-01-17T10:30:48.833Z,97328.97
2023-01-17T10:33:27.108Z,97330.69
2023-01-17T10:35:59.959Z,97330.28
2023-01-17T10:38:33.511Z,97337.22
2023-01-17T10:41:18.563Z,97332.66
2023-01-17T10:43:55.927Z,97339.22
2023-01-17T10:46:28.711Z,97332.47
2023-01-17T10:48:57.089Z,97343.63
2023-01-17T10:52:00.237Z,97338.59
2023-01-17T10:55:08.808Z,97336.69
2023-01-17T10:57:43.011Z,97341.47
2023-01-17T11:00:25.837Z,97351.31
2023-01-17T11:02:52.435Z,97343.91
2023-01-17T11:05:29.005Z,97346.34
2023-01-17T11:08:06.114Z,97343.97
2023-01-17T11:10:44.595Z,97347.69
2023-01-17T11:13:29.508Z,97344.34
2023-01-17T11:16:02.876Z,97340.16
2023-01-17T11:18:32.427Z,97340.78
2023-01-17T11:21:11.267Z,97338.22
2023-01-17T11:23:42.652Z,97337.19
2023-01-17T11:26:20.575Z,97331.81
2023-01-17T11:28:52.975Z,97326.97
2023-01-17T11:31:19.581Z,97329.03
2023-01-17T11:33:49.181Z,97316.94
2023-01-17T11:36:17.071Z,97312.59
2023-01-17T11:38:56.212Z,97315.38
2023-01-17T11:41:28.237Z,97304.53
2023-01-17T11:43:58.070Z,97313.72
2023-01-17T11:46:25.566Z,97314.69
2023-01-17T11:48:57.954Z,97305.91
2023-01-17T11:51:32.304Z,97305.72
2023-01-17T11:54:26.824Z,97307.38
2023-01-17T11:57:01.306Z,97294.63
2023-01-17T11:59:27.759Z,97293.38
2023-01-17T12:02:31.736Z,97281.03
2023-01-17T12:05:41.061Z,97276.53
2023-01-17T12:08:26.138Z,97274.22
2023-01-17T12:11:02.392Z,97286.25
2023-01-17T12:14:02.359Z,97281.19
2023-01-17T12:16:58.139Z,97277.03
2023-01-17T12:19:54.222Z,97265.72
2023-01-17T12:22:34.007Z,97252.78
2023-01-17T12:25:47.355Z,97258.72
2023-01-17T12:28:22.626Z,97248.13
2023-01-17T12:31:24.524Z,97243.59
2023-01-17T12:33:57.561Z,97234.31
2023-01-17T12:36:48.473Z,97233.47
2023-01-17T12:39:20.526Z,97237.22
2023-01-17T12:42:03.232Z,97232.31
2023-01-17T12:44:46.346Z,97227.72
2023-01-17T12:47:21.762Z,97233.34
2023-01-17T12:50:41.040Z,97225.06
2023-01-17T12:53:46.789Z,97219.50
2023-01-17T12:56:24.487Z,97220.34
2023-01-17T12:59:37.718Z,97213.66
2023-01-17T13:02:18.657Z,97208.06
2023-01-17T13:04:58.508Z,97203.59
2023-01-17T13:07:25.605Z,97202.22
2023-01-17T13:10:00.543Z,97200.94
2023-01-17T13:12:36.783Z,97195.09
2023-01-17T13:15:15.670Z,97200.88
2023-01-17T13:18:26.138Z,97206.16
2023-01-17T13:21:29.434Z,97198.66
2023-01-17T13:24:41.056Z,97198.56
2023-01-17T13:27:30.611Z,97194.00
2023-01-17T13:30:30.349Z,97184.88
2023-01-17T13:33:27.977Z,97189.91
2023-01-17T13:36:16.681Z,97187.88
2023-01-17T13:38:57.623Z,97190.81
2023-01-17T13:41:49.499Z,97196.50
2023-01-17T13:44:21.914Z,97197.59
2023-01-17T13:47:27.446Z,97190.97
2023-01-17T13:49:56.453Z,97189.81
2023-01-17T13:52:25.943Z,97190.66
2023-01-17T13:55:02.782Z,97192.91
2023-01-17T13:57:41.886Z,97191.31
2023-01-17T14:00:28.929Z,97186.69
2023-01-17T14:03:00.266Z,97193.22
2023-01-17T14:05:29.839Z,97195.78
2023-01-17T14:08:03.807Z,97196.69
2023-01-17T14:10:38.561Z,97202.19
2023-01-17T14:13:25.013Z,97211.41
2023-01-17T14:15:52.250Z,97212.59
2023-01-17T14:18:40.011Z,97201.34
2023-01-17T14:21:33.428Z,97201.38
2023-01-17T14:24:09.346Z,97202.31
2023-01-17T14:26:45.134Z,97192.03
2023-01-17T14:29:42.843Z,97185.69
2023-01-17T14:32:22.401Z,97181.25
2023-01-17T14:34:51.333Z,97183.31
2023-01-17T14:37:33.185Z,97184.06
2023-01-17T14:40:30.783Z,97184.44
2023-01-17T14:43:03.278Z,97179.31
2023-01-17T14:45:32.575Z,97185.78
2023-01-17T14:48:02.729Z,97176.69
2023-01-17T14:50:42.914Z,97178.94
2023-01-17T14:53:12.679Z,97171.34
2023-01-17T14:55:48.861Z,97176.84
2023-01-17T14:58:23.937Z,97175.00
2023-01-17T15:01:02.396Z,97177.41
2023-01-17T15:03:31.821Z,97175.75
2023-01-17T15:06:11.188Z,97169.47
2023-01-17T15:08:39.212Z,97182.88
2023-01-17T15:11:33.236Z,97180.31
2023-01-17T15:14:05.710Z,97176.56
2023-01-17T15:16:35.331Z,97182.41
2023-01-17T15:19:14.135Z,97178.13
2023-01-17T15:22:07.357Z,97194.03
2023-01-17T15:24:41.194Z,97195.94
2023-01-17T15:27:08.202Z,97196.16
2023-01-17T15:29:35.763Z,97194.16
2023-01-17T15:32:06.703Z,97198.88
2023-01-17T15:34:45.296Z,97199.84
2023-01-17T15:37:26.996Z,97200.22
2023-01-17T15:40:19.659Z,97206.84
2023-01-17T15:42:50.788Z,97204.63
2023-01-17T15:45:22.275Z,97194.13
2023-01-17T15:47:48.939Z,97200.28
2023-01-17T15:50:23.651Z,97204.16
2023-01-17T15:52:52.054Z,97206.41
2023-01-17T15:55:30.320Z,97211.75
2023-01-17T15:57:57.148Z,97203.56
2023-01-17T16:00:32.655Z,97204.59
2023-01-17T16:02:59.982Z,97204.69
2023-01-17T16:05:31.018Z,97205.78
2023-01-17T16:08:01.607Z,97209.19
2023-01-17T16:10:35.657Z,97210.56
2023-01-17T16:13:03.915Z,97204.03
2023-01-17T16:15:31.152Z,97211.50
2023-01-17T16:18:02.464Z,97215.31
2023-01-17T16:20:43.607Z,97211.44
2023-01-17T16:23:10.715Z,97214.16
2023-01-17T16:25:37.995Z,97211.06
2023-01-17T16:28:05.316Z,97211.56
2023-01-17T16:30:33.367Z,97212.25
2023-01-17T16:33:00.284Z,97217.63
2023-01-17T16:35:30.019Z,97212.38
2023-01-17T16:37:59.176Z,97218.09
2023-01-17T16:40:31.589Z,97221.53
2023-01-17T16:42:59.355Z,97223.81
2023-01-17T16:45:26.587Z,97219.13
2023-01-17T16:47:54.328Z,97226.09
2023-01-17T16:50:24.006Z,97230.69
2023-01-17T16:52:56.159Z,97216.31
2023-01-17T16:55:24.841Z,97218.53
2023-01-17T16:57:57.497Z,97224.69
2023-01-17T17:00:24.328Z,97217.69
2023-01-17T17:02:51.819Z,97222.59
2023-01-17T17:05:19.955Z,97216.28
2023-01-17T17:07:50.751Z,97223.41
2023-01-17T17:10:19.793Z,97224.69
2023-01-17T17:12:46.867Z,97223.97
2023-01-17T17:15:14.132Z,97228.19
2023-01-17T17:17:43.072Z,97223.81
2023-01-17T17:20:12.684Z,97231.94
2023-01-17T17:22:45.639Z,97222.31
2023-01-17T17:25:12.351Z,97228.47
2023-01-17T17:27:38.882Z,97227.06
2023-01-17T17:30:06.206Z,97227.72
2023-01-17T17:32:35.125Z,97225.28
2023-01-17T17:35:01.738Z,97226.66
2023-01-17T17:37:29.059Z,97227.75
2023-01-17T17:39:56.874Z,97229.03
2023-01-17T17:42:23.708Z,97228.00
2023-01-17T17:44:50.242Z,97237.50
2023-01-17T17:47:16.728Z,97240.53
2023-01-17T17:49:43.490Z,97240.47
2023-01-17T17:52:10.213Z,97239.88
2023-01-17T17:54:36.751Z,97252.06
2023-01-17T17:57:03.290Z,97247.53
2023-01-17T17:59:30.006Z,97246.00
2023-01-17T18:01:57.069Z,97248.94
2023-01-17T18:04:23.619Z,97253.38
2023-01-17T18:06:50.091Z,97252.78
2023-01-17T18:09:16.846Z,97256.88
2023-01-17T18:11:44.417Z,97260.19
2023-01-17T18:14:14.097Z,97249.84
2023-01-17T18:16:43.722Z,97253.38
2023-01-17T18:19:19.625Z,97251.41
2023-01-17T18:21:46.245Z,97255.53
2023-01-17T18:24:15.448Z,97256.38
2023-01-17T18:26:43.322Z,97260.22
2023-01-17T18:29:14.863Z,97264.38
2023-01-17T18:31:43.012Z,97262.69
2023-01-17T18:34:13.225Z,97268.66
2023-01-17T18:36:40.240Z,97272.66
2023-01-17T18:39:18.744Z,97278.94
2023-01-17T18:41:45.722Z,97272.66
2023-01-17T18:44:12.675Z,97270.69
2023-01-17T18:46:40.196Z,97280.88
2023-01-17T18:49:12.807Z,97282.72
2023-01-17T18:51:39.364Z,97280.13
2023-01-17T18:54:07.227Z,97287.75
2023-01-17T18:56:34.458Z,97285.00
2023-01-17T18:59:01.778Z,97289.53
2023-01-17T19:01:31.072Z,97287.16
2023-01-17T19:04:00.287Z,97283.19
2023-01-17T19:06:32.485Z,97286.78
2023-01-17T19:08:59.397Z,97290.28
2023-01-17T19:11:27.576Z,97296.81
2023-01-17T19:13:54.400Z,97302.63
2023-01-17T19:16:27.946Z,97303.31
2023-01-17T19:18:56.441Z,97311.06
2023-01-17T19:21:25.800Z,97312.22
2023-01-17T19:23:52.710Z,97314.22
2023-01-17T19:26:22.807Z,97309.53
2023-01-17T19:28:50.105Z,97320.66
2023-01-17T19:31:22.148Z,97320.94
2023-01-17T19:33:50.913Z,97323.25
2023-01-17T19:36:20.522Z,97324.41
2023-01-17T19:39:02.899Z,97322.78
2023-01-17T19:41:30.742Z,97327.75
2023-01-17T19:44:01.895Z,97327.13
2023-01-17T19:46:28.657Z,97336.84
2023-01-17T19:48:56.661Z,97337.47
2023-01-17T19:51:24.725Z,97335.75
2023-01-17T19:53:51.503Z,97342.63
2023-01-17T19:56:20.669Z,97342.75
2023-01-17T19:58:47.606Z,97339.63
2023-01-17T20:01:20.272Z,97342.63
2023-01-17T20:03:48.658Z,97342.63
2023-01-17T20:06:44.277Z,97340.16
2023-01-17T20:09:13.206Z,97343.91
2023-01-17T20:12:04.885Z,97346.38
2023-01-17T20:14:31.339Z,97346.09
2023-01-17T20:16:57.803Z,97342.28
2023-01-17T20:19:24.383Z,97342.75
2023-01-17T20:21:50.907Z,97344.38
2023-01-17T20:24:17.628Z,97350.13
2023-01-17T20:26:44.283Z,97349.84
2023-01-17T20:29:14.223Z,97349.50
2023-01-17T20:31:43.028Z,97347.47
2023-01-17T20:34:12.018Z,97348.28
2023-01-17T20:36:41.537Z,97346.69
2023-01-17T20:39:08.790Z,97353.88
2023-01-17T20:41:37.273Z,97356.34
2023-01-17T20:44:05.657Z,97349.97
2023-01-17T20:46:35.544Z,97350.16
2023-01-17T20:49:05.356Z,97359.09
2023-01-17T20:51:40.110Z,97357.88
2023-01-17T20:54:09.924Z,97363.31
2023-01-17T20:56:37.766Z,97360.41
2023-01-17T20:59:09.521Z,97360.25
2023-01-17T21:01:41.810Z,97356.66
2023-01-17T21:04:10.510Z,97352.81
2023-01-17T21:06:39.508Z,97359.56
2023-01-17T21:09:07.393Z,97363.94
2023-01-17T21:11:34.522Z,97366.31
2023-01-17T21:14:01.682Z,97363.78
2023-01-17T21:16:28.902Z,97364.09
2023-01-17T21:18:55.727Z,97373.34
2023-01-17T21:21:25.296Z,97362.31
2023-01-17T21:23:54.555Z,97365.91
2023-01-17T21:26:22.855Z,97367.53
2023-01-17T21:28:50.656Z,97370.53
2023-01-17T21:31:23.284Z,97356.91
2023-01-17T21:33:51.342Z,97364.53
2023-01-17T21:36:19.603Z,97365.16
2023-01-17T21:38:52.202Z,97360.25
2023-01-17T21:41:25.528Z,97367.69
2023-01-17T21:43:57.063Z,97371.03
2023-01-17T21:46:24.287Z,97364.41
2023-01-17T21:48:50.801Z,97370.53
2023-01-17T21:51:17.678Z,97358.94
2023-01-17T21:53:44.199Z,97365.16
2023-01-17T21:56:31.817Z,97365.22
2023-01-17T21:58:59.762Z,97365.72
2023-01-17T22:01:29.905Z,97375.22
2023-01-17T22:04:05.543Z,97370.81
2023-01-17T22:06:39.007Z,97372.34
2023-01-17T22:09:06.214Z,97373.28
2023-01-17T22:11:35.423Z,97370.13
2023-01-17T22:14:04.528Z,97365.47
2023-01-17T22:16:31.069Z,97374.88
2023-01-17T22:18:57.831Z,97369.94
2023-01-17T22:21:28.084Z,97375.28
2023-01-17T22:23:59.456Z,97372.59
2023-01-17T22:26:29.230Z,97372.81
2023-01-17T22:28:59.181Z,97362.38
2023-01-17T22:31:27.615Z,97374.13
2023-01-17T22:33:55.252Z,97375.28
2023-01-17T22:36:22.143Z,97365.47
2023-01-17T22:38:49.099Z,97373.28
2023-01-17T22:41:19.863Z,97372.19
2023-01-17T22:43:48.692Z,97366.69
2023-01-17T22:46:18.802Z,97360.63
2023-01-17T22:48:45.575Z,97365.38
2023-01-17T22:51:14.537Z,97367.84
2023-01-17T22:53:45.061Z,97374.03
2023-01-17T22:56:14.092Z,97373.59
2023-01-17T22:58:45.057Z,97378.03
